sensor_id;sensor_type;location;lat;lon;timestamp;temperature;humidity
50162;DHT22;36061;48.116;11.612;2023-04-24T00:01:10;10.80;99.90
50162;DHT22;36061;48.116;11.612;2023-04-24T00:03:38;10.80;99.90
50162;DHT22;36061;48.116;11.612;2023-04-24T00:06:06;10.70;99.90
50162;DHT22;36061;48.116;11.612;2023-04-24T00:08:34;10.70;99.90
50162;DHT22;36061;48.116;11.612;2023-04-24T00:11:01;10.70;99.90
50162;DHT22;36061;48.116;11.612;2023-04-24T00:13:30;10.80;99.90
50162;DHT22;36061;48.116;11.612;2023-04-24T00:15:57;10.80;99.90
50162;DHT22;36061;48.116;11.612;2023-04-24T00:18:24;10.90;99.90
50162;DHT22;36061;48.116;11.612;2023-04-24T00:20:51;10.90;99.90
50162;DHT22;36061;48.116;11.612;2023-04-24T00:23:19;10.90;99.90
50162;DHT22;36061;48.116;11.612;2023-04-24T00:25:46;10.90;99.90
50162;DHT22;36061;48.116;11.612;2023-04-24T00:28:13;10.90;99.90
50162;DHT22;36061;48.116;11.612;2023-04-24T00:30:42;10.90;99.90
50162;DHT22;36061;48.116;11.612;2023-04-24T00:33:09;10.90;99.90
50162;DHT22;36061;48.116;11.612;2023-04-24T00:35:37;10.80;99.90
50162;DHT22;36061;48.116;11.612;2023-04-24T00:38:04;10.80;99.90
50162;DHT22;36061;48.116;11.612;2023-04-24T00:40:31;10.70;99.90
50162;DHT22;36061;48.116;11.612;2023-04-24T00:42:58;10.80;99.90
50162;DHT22;36061;48.116;11.612;2023-04-24T00:45:26;10.70;99.90
50162;DHT22;36061;48.116;11.612;2023-04-24T00:47:54;10.70;99.90
50162;DHT22;36061;48.116;11.612;2023-04-24T00:50:23;10.70;99.90
50162;DHT22;36061;48.116;11.612;2023-04-24T00:52:51;10.70;99.90
50162;DHT22;36061;48.116;11.612;2023-04-24T00:55:18;10.70;99.90
50162;DHT22;36061;48.116;11.612;2023-04-24T00:57:46;10.70;99.90
50162;DHT22;36061;48.116;11.612;2023-04-24T01:00:15;10.70;99.90
50162;DHT22;36061;48.116;11.612;2023-04-24T01:02:43;10.60;99.90
50162;DHT22;36061;48.116;11.612;2023-04-24T01:05:13;10.60;99.90
50162;DHT22;36061;48.116;11.612;2023-04-24T01:07:41;10.60;99.90
50162;DHT22;36061;48.116;11.612;2023-04-24T01:10:11;10.60;99.90
50162;DHT22;36061;48.116;11.612;2023-04-24T01:12:40;10.60;99.90
50162;DHT22;36061;48.116;11.612;2023-04-24T01:15:08;10.50;99.90
50162;DHT22;36061;48.116;11.612;2023-04-24T01:17:36;10.50;99.90
50162;DHT22;36061;48.116;11.612;2023-04-24T01:20:05;10.50;99.90
50162;DHT22;36061;48.116;11.612;2023-04-24T01:22:34;10.40;99.90
50162;DHT22;36061;48.116;11.612;2023-04-24T01:25:02;10.40;99.90
50162;DHT22;36061;48.116;11.612;2023-04-24T01:27:30;10.40;99.90
50162;DHT22;36061;48.116;11.612;2023-04-24T01:29:58;10.40;99.90
50162;DHT22;36061;48.116;11.612;2023-04-24T01:32:26;10.40;99.90
50162;DHT22;36061;48.116;11.612;2023-04-24T01:34:54;10.30;99.90
50162;DHT22;36061;48.116;11.612;2023-04-24T01:37:22;10.40;99.90
50162;DHT22;36061;48.116;11.612;2023-04-24T01:39:50;10.40;99.90
50162;DHT22;36061;48.116;11.612;2023-04-24T01:42:18;10.30;99.90
50162;DHT22;36061;48.116;11.612;2023-04-24T01:44:47;10.30;99.90
50162;DHT22;36061;48.116;11.612;2023-04-24T01:47:14;10.30;99.90
50162;DHT22;36061;48.116;11.612;2023-04-24T01:49:42;10.30;99.90
50162;DHT22;36061;48.116;11.612;2023-04-24T01:52:09;10.30;99.90
50162;DHT22;36061;48.116;11.612;2023-04-24T01:54:36;10.30;99.90
50162;DHT22;36061;48.116;11.612;2023-04-24T01:57:05;10.30;99.90
50162;DHT22;36061;48.116;11.612;2023-04-24T01:59:33;10.30;99.90
50162;DHT22;36061;48.116;11.612;2023-04-24T02:02:02;10.30;99.90
50162;DHT22;36061;48.116;11.612;2023-04-24T02:04:29;10.30;99.90
50162;DHT22;36061;48.116;11.612;2023-04-24T02:06:56;10.30;99.90
50162;DHT22;36061;48.116;11.612;2023-04-24T02:09:24;10.30;99.90
50162;DHT22;36061;48.116;11.612;2023-04-24T02:11:52;10.30;99.90
50162;DHT22;36061;48.116;11.612;2023-04-24T02:14:20;10.30;99.90
50162;DHT22;36061;48.116;11.612;2023-04-24T02:16:47;10.30;99.90
50162;DHT22;36061;48.116;11.612;2023-04-24T02:19:15;10.30;99.90
50162;DHT22;36061;48.116;11.612;2023-04-24T02:21:42;10.20;99.90
50162;DHT22;36061;48.116;11.612;2023-04-24T02:24:10;10.20;99.90
50162;DHT22;36061;48.116;11.612;2023-04-24T02:26:37;10.20;99.90
50162;DHT22;36061;48.116;11.612;2023-04-24T02:29:04;10.20;99.90
50162;DHT22;36061;48.116;11.612;2023-04-24T02:31:33;10.20;99.90
50162;DHT22;36061;48.116;11.612;2023-04-24T02:34:00;10.10;99.90
50162;DHT22;36061;48.116;11.612;2023-04-24T02:36:27;10.10;99.90
50162;DHT22;36061;48.116;11.612;2023-04-24T02:38:54;10.00;99.90
50162;DHT22;36061;48.116;11.612;2023-04-24T02:41:21;10.00;99.90
50162;DHT22;36061;48.116;11.612;2023-04-24T02:43:49;10.00;99.90
50162;DHT22;36061;48.116;11.612;2023-04-24T02:46:16;10.10;99.90
50162;DHT22;36061;48.116;11.612;2023-04-24T02:48:45;10.00;99.90
50162;DHT22;36061;48.116;11.612;2023-04-24T02:51:12;10.00;99.90
50162;DHT22;36061;48.116;11.612;2023-04-24T02:53:40;9.90;99.90
50162;DHT22;36061;48.116;11.612;2023-04-24T02:56:07;9.90;99.90
50162;DHT22;36061;48.116;11.612;2023-04-24T02:58:34;9.90;99.90
50162;DHT22;36061;48.116;11.612;2023-04-24T03:01:02;9.90;99.90
50162;DHT22;36061;48.116;11.612;2023-04-24T03:03:29;9.90;99.90
50162;DHT22;36061;48.116;11.612;2023-04-24T03:05:58;9.90;99.90
50162;DHT22;36061;48.116;11.612;2023-04-24T03:08:25;9.90;99.90
50162;DHT22;36061;48.116;11.612;2023-04-24T03:10:52;9.80;99.90
50162;DHT22;36061;48.116;11.612;2023-04-24T03:13:20;9.90;99.90
50162;DHT22;36061;48.116;11.612;2023-04-24T03:15:47;9.90;99.90
50162;DHT22;36061;48.116;11.612;2023-04-24T03:18:14;9.90;99.90
50162;DHT22;36061;48.116;11.612;2023-04-24T03:20:42;9.90;99.90
50162;DHT22;36061;48.116;11.612;2023-04-24T03:23:10;10.00;99.90
50162;DHT22;36061;48.116;11.612;2023-04-24T03:25:38;9.90;99.90
50162;DHT22;36061;48.116;11.612;2023-04-24T03:28:07;9.90;99.90
50162;DHT22;36061;48.116;11.612;2023-04-24T03:30:41;9.90;99.90
50162;DHT22;36061;48.116;11.612;2023-04-24T03:33:09;9.90;99.90
50162;DHT22;36061;48.116;11.612;2023-04-24T03:35:42;9.80;99.90
50162;DHT22;36061;48.116;11.612;2023-04-24T03:38:13;9.90;99.90
50162;DHT22;36061;48.116;11.612;2023-04-24T03:40:49;9.90;99.90
50162;DHT22;36061;48.116;11.612;2023-04-24T03:43:39;9.80;99.90
50162;DHT22;36061;48.116;11.612;2023-04-24T03:46:07;9.80;99.90
50162;DHT22;36061;48.116;11.612;2023-04-24T03:48:39;9.80;99.90
50162;DHT22;36061;48.116;11.612;2023-04-24T03:51:08;9.80;99.90
50162;DHT22;36061;48.116;11.612;2023-04-24T03:53:38;9.80;99.90
50162;DHT22;36061;48.116;11.612;2023-04-24T03:56:06;9.80;99.90
50162;DHT22;36061;48.116;11.612;2023-04-24T03:58:35;9.80;99.90
50162;DHT22;36061;48.116;11.612;2023-04-24T04:01:02;9.90;99.90
50162;DHT22;36061;48.116;11.612;2023-04-24T04:03:35;9.80;99.90
50162;DHT22;36061;48.116;11.612;2023-04-24T04:06:02;9.90;99.90
50162;DHT22;36061;48.116;11.612;2023-04-24T04:08:29;9.90;99.90
50162;DHT22;36061;48.116;11.612;2023-04-24T04:10:59;9.90;99.90
50162;DHT22;36061;48.116;11.612;2023-04-24T04:13:26;9.90;99.90
50162;DHT22;36061;48.116;11.612;2023-04-24T04:15:53;9.90;99.90
50162;DHT22;36061;48.116;11.612;2023-04-24T04:18:20;9.90;99.90
50162;DHT22;36061;48.116;11.612;2023-04-24T04:20:48;9.90;99.90
50162;DHT22;36061;48.116;11.612;2023-04-24T04:23:16;9.90;99.90
50162;DHT22;36061;48.116;11.612;2023-04-24T04:25:53;9.90;99.90
50162;DHT22;36061;48.116;11.612;2023-04-24T04:28:25;9.90;99.90
50162;DHT22;36061;48.116;11.612;2023-04-24T04:30:53;9.90;99.90
50162;DHT22;36061;48.116;11.612;2023-04-24T04:33:23;9.90;99.90
50162;DHT22;36061;48.116;11.612;2023-04-24T04:35:51;9.90;99.90
50162;DHT22;36061;48.116;11.612;2023-04-24T04:38:18;9.90;99.90
50162;DHT22;36061;48.116;11.612;2023-04-24T04:40:53;9.90;99.90
50162;DHT22;36061;48.116;11.612;2023-04-24T04:43:22;9.90;99.90
50162;DHT22;36061;48.116;11.612;2023-04-24T04:45:53;9.90;99.90
50162;DHT22;36061;48.116;11.612;2023-04-24T04:48:59;9.90;99.90
50162;DHT22;36061;48.116;11.612;2023-04-24T04:51:27;9.90;99.90
50162;DHT22;36061;48.116;11.612;2023-04-24T04:53:54;9.90;99.90
50162;DHT22;36061;48.116;11.612;2023-04-24T04:56:22;9.90;99.90
50162;DHT22;36061;48.116;11.612;2023-04-24T04:58:49;9.90;99.90
50162;DHT22;36061;48.116;11.612;2023-04-24T05:01:19;9.90;99.90
50162;DHT22;36061;48.116;11.612;2023-04-24T05:03:48;9.90;99.90
50162;DHT22;36061;48.116;11.612;2023-04-24T05:06:17;9.90;99.90
50162;DHT22;36061;48.116;11.612;2023-04-24T05:08:45;9.90;99.90
50162;DHT22;36061;48.116;11.612;2023-04-24T05:11:25;9.90;99.90
50162;DHT22;36061;48.116;11.612;2023-04-24T05:13:55;9.90;99.90
50162;DHT22;36061;48.116;11.612;2023-04-24T05:16:33;9.90;99.90
50162;DHT22;36061;48.116;11.612;2023-04-24T05:19:00;9.90;99.90
50162;DHT22;36061;48.116;11.612;2023-04-24T05:21:33;9.90;99.90
50162;DHT22;36061;48.116;11.612;2023-04-24T05:24:00;10.00;99.90
50162;DHT22;36061;48.116;11.612;2023-04-24T05:26:48;10.00;99.90
50162;DHT22;36061;48.116;11.612;2023-04-24T05:29:19;10.10;99.90
50162;DHT22;36061;48.116;11.612;2023-04-24T05:31:48;10.10;99.90
50162;DHT22;36061;48.116;11.612;2023-04-24T05:34:16;10.10;99.90
50162;DHT22;36061;48.116;11.612;2023-04-24T05:36:45;10.10;99.90
50162;DHT22;36061;48.116;11.612;2023-04-24T05:39:13;10.10;99.90
50162;DHT22;36061;48.116;11.612;2023-04-24T05:41:40;10.10;99.90
50162;DHT22;36061;48.116;11.612;2023-04-24T05:44:07;10.10;99.90
50162;DHT22;36061;48.116;11.612;2023-04-24T05:46:35;10.10;99.90
50162;DHT22;36061;48.116;11.612;2023-04-24T05:49:03;10.20;99.90
50162;DHT22;36061;48.116;11.612;2023-04-24T05:51:32;10.20;99.90
50162;DHT22;36061;48.116;11.612;2023-04-24T05:54:00;10.20;99.90
50162;DHT22;36061;48.116;11.612;2023-04-24T05:56:29;10.30;99.90
50162;DHT22;36061;48.116;11.612;2023-04-24T05:58:57;10.30;99.90
50162;DHT22;36061;48.116;11.612;2023-04-24T06:01:24;10.30;99.90
50162;DHT22;36061;48.116;11.612;2023-04-24T06:04:04;10.30;99.90
50162;DHT22;36061;48.116;11.612;2023-04-24T06:06:31;10.30;99.90
50162;DHT22;36061;48.116;11.612;2023-04-24T06:08:59;10.40;99.90
50162;DHT22;36061;48.116;11.612;2023-04-24T06:11:27;10.40;99.90
50162;DHT22;36061;48.116;11.612;2023-04-24T06:13:56;10.40;99.90
50162;DHT22;36061;48.116;11.612;2023-04-24T06:16:39;10.50;99.90
50162;DHT22;36061;48.116;11.612;2023-04-24T06:19:21;10.60;99.90
50162;DHT22;36061;48.116;11.612;2023-04-24T06:21:48;10.60;99.90
50162;DHT22;36061;48.116;11.612;2023-04-24T06:24:15;10.70;99.90
50162;DHT22;36061;48.116;11.612;2023-04-24T06:26:43;10.80;99.90
50162;DHT22;36061;48.116;11.612;2023-04-24T06:29:10;10.90;99.90
50162;DHT22;36061;48.116;11.612;2023-04-24T06:31:38;10.90;99.90
50162;DHT22;36061;48.116;11.612;2023-04-24T06:34:06;11.00;99.90
50162;DHT22;36061;48.116;11.612;2023-04-24T06:36:34;11.00;99.90
50162;DHT22;36061;48.116;11.612;2023-04-24T06:39:02;11.00;99.90
50162;DHT22;36061;48.116;11.612;2023-04-24T06:41:29;11.00;99.90
50162;DHT22;36061;48.116;11.612;2023-04-24T06:43:56;11.00;99.90
50162;DHT22;36061;48.116;11.612;2023-04-24T06:46:23;11.00;99.90
50162;DHT22;36061;48.116;11.612;2023-04-24T06:48:51;11.10;99.90
50162;DHT22;36061;48.116;11.612;2023-04-24T06:51:22;11.10;99.90
50162;DHT22;36061;48.116;11.612;2023-04-24T06:53:51;11.10;99.90
50162;DHT22;36061;48.116;11.612;2023-04-24T06:56:18;11.20;99.90
50162;DHT22;36061;48.116;11.612;2023-04-24T06:58:46;11.30;99.90
50162;DHT22;36061;48.116;11.612;2023-04-24T07:01:13;11.30;99.90
50162;DHT22;36061;48.116;11.612;2023-04-24T07:03:40;11.40;99.90
50162;DHT22;36061;48.116;11.612;2023-04-24T07:06:08;11.50;99.90
50162;DHT22;36061;48.116;11.612;2023-04-24T07:08:36;11.70;99.90
50162;DHT22;36061;48.116;11.612;2023-04-24T07:11:05;11.90;99.90
50162;DHT22;36061;48.116;11.612;2023-04-24T07:13:33;11.90;99.90
50162;DHT22;36061;48.116;11.612;2023-04-24T07:16:01;11.80;99.90
50162;DHT22;36061;48.116;11.612;2023-04-24T07:18:28;11.80;99.90
50162;DHT22;36061;48.116;11.612;2023-04-24T07:20:56;11.80;99.90
50162;DHT22;36061;48.116;11.612;2023-04-24T07:23:23;11.70;99.90
50162;DHT22;36061;48.116;11.612;2023-04-24T07:25:50;11.70;99.90
50162;DHT22;36061;48.116;11.612;2023-04-24T07:28:19;11.80;99.90
50162;DHT22;36061;48.116;11.612;2023-04-24T07:30:46;12.00;99.90
50162;DHT22;36061;48.116;11.612;2023-04-24T07:33:13;12.00;99.90
50162;DHT22;36061;48.116;11.612;2023-04-24T07:35:41;12.20;99.90
50162;DHT22;36061;48.116;11.612;2023-04-24T07:38:08;12.10;99.90
50162;DHT22;36061;48.116;11.612;2023-04-24T07:40:35;12.10;99.90
50162;DHT22;36061;48.116;11.612;2023-04-24T07:43:02;12.10;99.90
50162;DHT22;36061;48.116;11.612;2023-04-24T07:45:31;12.00;99.90
50162;DHT22;36061;48.116;11.612;2023-04-24T07:48:02;11.90;99.90
50162;DHT22;36061;48.116;11.612;2023-04-24T07:50:29;11.80;99.90
50162;DHT22;36061;48.116;11.612;2023-04-24T07:52:56;11.70;99.90
50162;DHT22;36061;48.116;11.612;2023-04-24T07:55:23;11.70;99.90
50162;DHT22;36061;48.116;11.612;2023-04-24T07:57:51;11.70;99.90
50162;DHT22;36061;48.116;11.612;2023-04-24T08:00:18;11.80;99.90
50162;DHT22;36061;48.116;11.612;2023-04-24T08:02:48;11.90;99.90
50162;DHT22;36061;48.116;11.612;2023-04-24T08:05:15;12.00;99.90
50162;DHT22;36061;48.116;11.612;2023-04-24T08:07:42;12.10;99.90
50162;DHT22;36061;48.116;11.612;2023-04-24T08:10:11;12.20;99.90
50162;DHT22;36061;48.116;11.612;2023-04-24T08:12:39;12.30;99.90
50162;DHT22;36061;48.116;11.612;2023-04-24T08:15:08;12.40;99.90
50162;DHT22;36061;48.116;11.612;2023-04-24T08:17:35;12.50;99.90
50162;DHT22;36061;48.116;11.612;2023-04-24T08:20:05;12.70;99.90
50162;DHT22;36061;48.116;11.612;2023-04-24T08:22:36;12.70;99.90
50162;DHT22;36061;48.116;11.612;2023-04-24T08:25:03;12.60;99.90
50162;DHT22;36061;48.116;11.612;2023-04-24T08:27:31;12.60;99.90
50162;DHT22;36061;48.116;11.612;2023-04-24T08:29:58;12.50;99.90
50162;DHT22;36061;48.116;11.612;2023-04-24T08:32:26;12.40;99.90
50162;DHT22;36061;48.116;11.612;2023-04-24T08:34:54;12.20;99.90
50162;DHT22;36061;48.116;11.612;2023-04-24T08:37:23;12.00;99.90
50162;DHT22;36061;48.116;11.612;2023-04-24T08:39:51;11.90;99.90
50162;DHT22;36061;48.116;11.612;2023-04-24T08:42:19;11.70;99.90
50162;DHT22;36061;48.116;11.612;2023-04-24T08:44:49;11.60;99.90
50162;DHT22;36061;48.116;11.612;2023-04-24T08:47:16;11.50;99.90
50162;DHT22;36061;48.116;11.612;2023-04-24T08:49:43;11.00;99.90
50162;DHT22;36061;48.116;11.612;2023-04-24T08:52:12;10.70;99.90
50162;DHT22;36061;48.116;11.612;2023-04-24T08:54:42;10.60;99.90
50162;DHT22;36061;48.116;11.612;2023-04-24T08:57:11;10.50;99.90
50162;DHT22;36061;48.116;11.612;2023-04-24T08:59:41;10.50;99.90
50162;DHT22;36061;48.116;11.612;2023-04-24T09:02:10;10.60;99.90
50162;DHT22;36061;48.116;11.612;2023-04-24T09:04:38;10.60;99.90
50162;DHT22;36061;48.116;11.612;2023-04-24T09:07:06;10.60;99.90
50162;DHT22;36061;48.116;11.612;2023-04-24T09:09:35;10.70;99.90
50162;DHT22;36061;48.116;11.612;2023-04-24T09:12:04;10.70;99.90
50162;DHT22;36061;48.116;11.612;2023-04-24T09:14:31;10.60;99.90
50162;DHT22;36061;48.116;11.612;2023-04-24T09:16:59;10.60;99.90
50162;DHT22;36061;48.116;11.612;2023-04-24T09:19:26;10.60;99.90
50162;DHT22;36061;48.116;11.612;2023-04-24T09:21:54;10.70;99.90
50162;DHT22;36061;48.116;11.612;2023-04-24T09:24:21;10.70;99.90
50162;DHT22;36061;48.116;11.612;2023-04-24T09:26:56;10.70;99.90
50162;DHT22;36061;48.116;11.612;2023-04-24T09:29:25;10.80;99.90
50162;DHT22;36061;48.116;11.612;2023-04-24T09:31:52;10.90;99.90
50162;DHT22;36061;48.116;11.612;2023-04-24T09:34:21;11.00;99.90
50162;DHT22;36061;48.116;11.612;2023-04-24T09:36:50;11.10;99.90
50162;DHT22;36061;48.116;11.612;2023-04-24T09:39:18;11.20;99.90
50162;DHT22;36061;48.116;11.612;2023-04-24T09:41:47;11.30;99.90
50162;DHT22;36061;48.116;11.612;2023-04-24T09:44:16;11.30;99.90
50162;DHT22;36061;48.116;11.612;2023-04-24T09:46:48;11.30;99.90
50162;DHT22;36061;48.116;11.612;2023-04-24T09:49:22;11.50;99.90
50162;DHT22;36061;48.116;11.612;2023-04-24T09:51:49;11.60;99.90
50162;DHT22;36061;48.116;11.612;2023-04-24T09:54:18;11.70;99.90
50162;DHT22;36061;48.116;11.612;2023-04-24T09:56:47;11.80;99.90
50162;DHT22;36061;48.116;11.612;2023-04-24T09:59:17;12.00;99.90
50162;DHT22;36061;48.116;11.612;2023-04-24T10:01:46;12.00;99.90
50162;DHT22;36061;48.116;11.612;2023-04-24T10:04:16;11.80;99.90
50162;DHT22;36061;48.116;11.612;2023-04-24T10:06:44;11.80;99.90
50162;DHT22;36061;48.116;11.612;2023-04-24T10:09:12;11.90;99.90
50162;DHT22;36061;48.116;11.612;2023-04-24T10:11:42;12.00;99.90
50162;DHT22;36061;48.116;11.612;2023-04-24T10:14:12;12.10;99.90
50162;DHT22;36061;48.116;11.612;2023-04-24T10:16:40;12.10;99.90
50162;DHT22;36061;48.116;11.612;2023-04-24T10:19:09;12.20;99.90
50162;DHT22;36061;48.116;11.612;2023-04-24T10:21:40;12.20;99.90
50162;DHT22;36061;48.116;11.612;2023-04-24T10:24:12;12.30;99.90
50162;DHT22;36061;48.116;11.612;2023-04-24T10:26:40;12.20;99.90
50162;DHT22;36061;48.116;11.612;2023-04-24T10:29:07;12.20;99.90
50162;DHT22;36061;48.116;11.612;2023-04-24T10:31:38;12.20;99.90
50162;DHT22;36061;48.116;11.612;2023-04-24T10:34:06;12.20;99.90
50162;DHT22;36061;48.116;11.612;2023-04-24T10:36:36;12.30;99.90
50162;DHT22;36061;48.116;11.612;2023-04-24T10:39:09;12.50;99.90
50162;DHT22;36061;48.116;11.612;2023-04-24T10:41:38;12.60;99.90
50162;DHT22;36061;48.116;11.612;2023-04-24T10:44:06;12.70;99.90
50162;DHT22;36061;48.116;11.612;2023-04-24T10:46:33;12.60;99.90
50162;DHT22;36061;48.116;11.612;2023-04-24T10:49:04;12.50;99.90
50162;DHT22;36061;48.116;11.612;2023-04-24T10:51:50;12.50;99.90
50162;DHT22;36061;48.116;11.612;2023-04-24T10:54:23;12.40;99.90
50162;DHT22;36061;48.116;11.612;2023-04-24T10:56:51;12.30;99.90
50162;DHT22;36061;48.116;11.612;2023-04-24T10:59:25;12.20;99.90
50162;DHT22;36061;48.116;11.612;2023-04-24T11:01:55;11.90;99.90
50162;DHT22;36061;48.116;11.612;2023-04-24T11:04:29;11.20;99.90
50162;DHT22;36061;48.116;11.612;2023-04-24T11:06:58;10.70;99.90
50162;DHT22;36061;48.116;11.612;2023-04-24T11:09:27;10.50;99.90
50162;DHT22;36061;48.116;11.612;2023-04-24T11:12:03;10.30;99.90
50162;DHT22;36061;48.116;11.612;2023-04-24T11:15:00;10.30;99.90
50162;DHT22;36061;48.116;11.612;2023-04-24T11:17:31;10.30;99.90
50162;DHT22;36061;48.116;11.612;2023-04-24T11:20:02;10.50;99.90
50162;DHT22;36061;48.116;11.612;2023-04-24T11:22:35;10.70;99.90
50162;DHT22;36061;48.116;11.612;2023-04-24T11:25:03;10.90;99.90
50162;DHT22;36061;48.116;11.612;2023-04-24T11:27:38;11.30;99.90
50162;DHT22;36061;48.116;11.612;2023-04-24T11:30:07;11.60;99.90
50162;DHT22;36061;48.116;11.612;2023-04-24T11:32:36;11.80;99.90
50162;DHT22;36061;48.116;11.612;2023-04-24T11:35:05;11.90;99.90
50162;DHT22;36061;48.116;11.612;2023-04-24T11:37:38;11.90;99.90
50162;DHT22;36061;48.116;11.612;2023-04-24T11:40:07;11.80;99.90
50162;DHT22;36061;48.116;11.612;2023-04-24T11:42:36;12.00;99.90
50162;DHT22;36061;48.116;11.612;2023-04-24T11:45:08;12.10;99.90
50162;DHT22;36061;48.116;11.612;2023-04-24T11:47:37;12.30;99.90
50162;DHT22;36061;48.116;11.612;2023-04-24T11:50:07;12.50;99.90
50162;DHT22;36061;48.116;11.612;2023-04-24T11:52:39;12.60;99.90
50162;DHT22;36061;48.116;11.612;2023-04-24T11:55:08;12.70;99.90
50162;DHT22;36061;48.116;11.612;2023-04-24T11:57:36;12.70;99.90
50162;DHT22;36061;48.116;11.612;2023-04-24T12:00:04;12.60;99.90
50162;DHT22;36061;48.116;11.612;2023-04-24T12:02:38;12.60;99.90
50162;DHT22;36061;48.116;11.612;2023-04-24T12:05:06;12.60;99.90
50162;DHT22;36061;48.116;11.612;2023-04-24T12:07:42;12.50;99.90
50162;DHT22;36061;48.116;11.612;2023-04-24T12:10:10;12.50;99.90
50162;DHT22;36061;48.116;11.612;2023-04-24T12:12:37;12.50;99.90
50162;DHT22;36061;48.116;11.612;2023-04-24T12:15:07;12.50;99.90
50162;DHT22;36061;48.116;11.612;2023-04-24T12:17:35;12.50;99.90
50162;DHT22;36061;48.116;11.612;2023-04-24T12:20:04;12.50;99.90
50162;DHT22;36061;48.116;11.612;2023-04-24T12:22:46;12.60;99.90
50162;DHT22;36061;48.116;11.612;2023-04-24T12:25:14;12.60;99.90
50162;DHT22;36061;48.116;11.612;2023-04-24T12:27:41;12.60;99.90
50162;DHT22;36061;48.116;11.612;2023-04-24T12:30:11;12.60;99.90
50162;DHT22;36061;48.116;11.612;2023-04-24T12:32:42;12.60;99.90
50162;DHT22;36061;48.116;11.612;2023-04-24T12:35:09;12.70;99.90
50162;DHT22;36061;48.116;11.612;2023-04-24T12:37:37;12.80;99.90
50162;DHT22;36061;48.116;11.612;2023-04-24T12:40:08;12.90;99.90
50162;DHT22;36061;48.116;11.612;2023-04-24T12:42:42;13.00;99.90
50162;DHT22;36061;48.116;11.612;2023-04-24T12:45:10;13.10;99.90
50162;DHT22;36061;48.116;11.612;2023-04-24T12:47:39;13.30;99.90
50162;DHT22;36061;48.116;11.612;2023-04-24T12:50:07;13.30;99.90
50162;DHT22;36061;48.116;11.612;2023-04-24T12:52:34;13.40;99.90
50162;DHT22;36061;48.116;11.612;2023-04-24T12:55:02;13.50;99.90
50162;DHT22;36061;48.116;11.612;2023-04-24T12:57:32;13.50;99.90
50162;DHT22;36061;48.116;11.612;2023-04-24T12:59:59;13.60;99.90
50162;DHT22;36061;48.116;11.612;2023-04-24T13:02:28;13.50;99.90
50162;DHT22;36061;48.116;11.612;2023-04-24T13:04:56;13.60;99.90
50162;DHT22;36061;48.116;11.612;2023-04-24T13:07:24;13.50;99.90
50162;DHT22;36061;48.116;11.612;2023-04-24T13:09:52;13.60;99.90
50162;DHT22;36061;48.116;11.612;2023-04-24T13:12:19;13.40;99.90
50162;DHT22;36061;48.116;11.612;2023-04-24T13:14:48;13.20;99.90
50162;DHT22;36061;48.116;11.612;2023-04-24T13:17:15;13.30;99.90
50162;DHT22;36061;48.116;11.612;2023-04-24T13:19:43;13.30;99.90
50162;DHT22;36061;48.116;11.612;2023-04-24T13:22:12;13.30;99.90
50162;DHT22;36061;48.116;11.612;2023-04-24T13:24:39;13.30;99.90
50162;DHT22;36061;48.116;11.612;2023-04-24T13:27:07;13.10;99.90
50162;DHT22;36061;48.116;11.612;2023-04-24T13:29:35;12.90;99.90
50162;DHT22;36061;48.116;11.612;2023-04-24T13:32:03;12.80;99.90
50162;DHT22;36061;48.116;11.612;2023-04-24T13:34:31;12.70;99.90
50162;DHT22;36061;48.116;11.612;2023-04-24T13:36:58;12.80;99.90
50162;DHT22;36061;48.116;11.612;2023-04-24T13:39:26;12.80;99.90
50162;DHT22;36061;48.116;11.612;2023-04-24T13:41:54;12.90;99.90
50162;DHT22;36061;48.116;11.612;2023-04-24T13:44:21;13.20;99.90
50162;DHT22;36061;48.116;11.612;2023-04-24T13:46:51;13.30;99.90
50162;DHT22;36061;48.116;11.612;2023-04-24T13:49:21;13.40;99.90
50162;DHT22;36061;48.116;11.612;2023-04-24T13:51:50;13.40;99.90
50162;DHT22;36061;48.116;11.612;2023-04-24T13:54:18;13.30;99.90
50162;DHT22;36061;48.116;11.612;2023-04-24T13:56:45;13.20;99.90
50162;DHT22;36061;48.116;11.612;2023-04-24T13:59:13;13.20;99.90
50162;DHT22;36061;48.116;11.612;2023-04-24T14:01:40;13.20;99.90
50162;DHT22;36061;48.116;11.612;2023-04-24T14:04:07;13.20;99.90
50162;DHT22;36061;48.116;11.612;2023-04-24T14:06:36;13.30;99.90
50162;DHT22;36061;48.116;11.612;2023-04-24T14:09:03;13.30;99.90
50162;DHT22;36061;48.116;11.612;2023-04-24T14:11:30;13.40;99.90
50162;DHT22;36061;48.116;11.612;2023-04-24T14:13:58;13.30;99.90
50162;DHT22;36061;48.116;11.612;2023-04-24T14:16:25;13.30;99.90
50162;DHT22;36061;48.116;11.612;2023-04-24T14:18:52;13.40;99.90
50162;DHT22;36061;48.116;11.612;2023-04-24T14:21:19;13.50;99.90
50162;DHT22;36061;48.116;11.612;2023-04-24T14:23:48;13.60;99.90
50162;DHT22;36061;48.116;11.612;2023-04-24T14:26:16;13.60;99.90
50162;DHT22;36061;48.116;11.612;2023-04-24T14:28:43;13.60;99.90
50162;DHT22;36061;48.116;11.612;2023-04-24T14:31:10;13.50;99.90
50162;DHT22;36061;48.116;11.612;2023-04-24T14:33:37;13.60;99.90
50162;DHT22;36061;48.116;11.612;2023-04-24T14:36:05;13.80;99.90
50162;DHT22;36061;48.116;11.612;2023-04-24T14:38:32;13.80;99.90
50162;DHT22;36061;48.116;11.612;2023-04-24T14:41:01;14.00;99.90
50162;DHT22;36061;48.116;11.612;2023-04-24T14:43:34;14.00;99.90
50162;DHT22;36061;48.116;11.612;2023-04-24T14:46:02;14.00;99.90
50162;DHT22;36061;48.116;11.612;2023-04-24T14:48:29;13.90;99.90
50162;DHT22;36061;48.116;11.612;2023-04-24T14:50:57;13.90;99.90
50162;DHT22;36061;48.116;11.612;2023-04-24T14:53:24;13.90;99.90
50162;DHT22;36061;48.116;11.612;2023-04-24T14:55:51;13.90;99.90
50162;DHT22;36061;48.116;11.612;2023-04-24T14:58:20;13.70;99.90
50162;DHT22;36061;48.116;11.612;2023-04-24T15:00:47;13.60;99.90
50162;DHT22;36061;48.116;11.612;2023-04-24T15:03:15;13.60;99.90
50162;DHT22;36061;48.116;11.612;2023-04-24T15:05:43;13.60;99.90
50162;DHT22;36061;48.116;11.612;2023-04-24T15:08:10;13.60;99.90
50162;DHT22;36061;48.116;11.612;2023-04-24T15:10:37;13.50;99.90
50162;DHT22;36061;48.116;11.612;2023-04-24T15:13:05;13.50;99.90
50162;DHT22;36061;48.116;11.612;2023-04-24T15:15:33;13.50;99.90
50162;DHT22;36061;48.116;11.612;2023-04-24T15:18:01;13.50;99.90
50162;DHT22;36061;48.116;11.612;2023-04-24T15:20:28;13.40;99.90
50162;DHT22;36061;48.116;11.612;2023-04-24T15:22:55;13.40;99.90
50162;DHT22;36061;48.116;11.612;2023-04-24T15:25:24;13.40;99.90
50162;DHT22;36061;48.116;11.612;2023-04-24T15:27:51;13.40;99.90